Main page
METAR-TAF:

METAR-TAF

Airports :

Norrköping, Sweden

Norrköping Airport

latitude: 58-35N, longitude: 016-09E, elevation: 34 m

Current weather observation

The report was made 34 minutes ago, at 13:50 UTC
Calm wind
Temperature -7°C
Humidity 93%
Pressure 1016 hPa
Visibility: 0600 m
patches of fog

METAR: ESSP 211350Z 00000KT 0600 R09/0750N R27/1500N BCFG NSC M07/M08 Q1016 R27/850175

Time: 15:24 (14:24 UTC)

Forecast

The report was made 1 hour and 54 minutes ago, at 12:30 UTC
Forecast valid from 21 at 13 UTC to 21 at 16 UTC
Wind 2 kt from variable directions
Visibility: 5000 m
patches of fog
Temporary
from 21 at 13 UTC to 21 at 16 UTC
Visibility: 0300 m
at a height of 200 ft
freezing fog

TAF: ESSP 211230Z 2113/2116 VRB02KT 5000 BCFG NSC TEMPO 2113/2116 0300 FZFG VV002

Weather observations and forecasts of more than 4000 airports (METAR and TAF reports).

The available stations are represented by yellow and red dots on the map.

Hover mouse over dot to see the name of the station.

Then click to see weather observations and forecasts.

To change the map : click on the green buttons with a black cross to zoom in, on the green button with a dash to zoom out, or on the green arrows for adjacent maps.


METAR-TAF: